Time;durP1;ratioP1;P1;durP2;ratioP2;P2;SDS_P1;SDS_P2;PMS_P1;PMS_P2;Temp;Humidity;BMP_temperature;BMP_pressure;BME280_temperature;BME280_humidity;BME280_pressure;Samples;Min_cycle;Max_cycle;Signal;HPM_P1;HPM_P2
2023/12/15 00:01:24;;;;;;;3.40;2.90;;;;;;;6.44;100.00;99810.47;5098689;28;20223;-78
2023/12/15 00:03:51;;;;;;;4.00;3.60;;;;;;;6.45;100.00;99812.91;5093244;28;20726;-79
2023/12/15 00:06:18;;;;;;;3.80;3.50;;;;;;;6.37;100.00;99812.22;5080289;28;20227;-78
2023/12/15 00:08:55;;;;;;;;;;;;;;;;;;;;;
2023/12/15 00:11:24;;;;;;;3.77;3.47;;;;;;;6.36;100.00;99824.69;5088982;28;20192;-79
2023/12/15 00:13:57;;;;;;;3.70;3.40;;;;;;;6.37;100.00;99830.84;5079598;28;20184;-80
2023/12/15 00:16:38;;;;;;;3.80;3.50;;;;;;;6.40;100.00;99835.78;5108835;28;20187;-79
2023/12/15 00:19:06;;;;;;;4.30;3.90;;;;;;;6.30;100.00;99840.59;5082312;28;20311;-77
2023/12/15 00:21:33;;;;;;;4.13;3.83;;;;;;;6.33;100.00;99842.88;5095258;28;20197;-81
2023/12/15 00:24:02;;;;;;;4.07;3.67;;;;;;;6.31;100.00;99850.19;5097264;28;20187;-77
2023/12/15 00:26:30;;;;;;;4.23;3.93;;;;;;;6.35;100.00;99862.94;5093615;28;20195;-80
2023/12/15 00:29:00;;;;;;;4.67;4.27;;;;;;;6.27;100.00;99856.91;5099817;28;20623;-77
2023/12/15 00:31:27;;;;;;;4.37;3.97;;;;;;;6.20;100.00;99859.50;5095135;28;20261;-78
2023/12/15 00:33:54;;;;;;;4.17;3.77;;;;;;;6.16;100.00;99861.69;5098113;28;20268;-78
2023/12/15 00:36:22;;;;;;;4.37;4.00;;;;;;;6.18;100.00;99861.53;5065517;28;20296;-78
2023/12/15 00:38:48;;;;;;;4.83;4.43;;;;;;;6.16;100.00;99876.81;5091530;28;20256;-78
2023/12/15 00:41:16;;;;;;;4.77;4.37;;;;;;;6.13;100.00;99880.69;5091733;28;20184;-82
2023/12/15 00:43:43;;;;;;;4.77;4.37;;;;;;;6.15;100.00;99885.84;5095196;28;20207;-81
2023/12/15 00:46:11;;;;;;;4.90;4.50;;;;;;;6.12;100.00;99887.03;5098292;28;20207;-78
2023/12/15 00:48:38;;;;;;;4.90;4.50;;;;;;;6.12;100.00;99897.66;5100200;28;20195;-78
2023/12/15 00:51:11;;;;;;;5.27;4.77;;;;;;;6.11;100.00;99895.22;5093321;28;20200;-79
2023/12/15 00:53:52;;;;;;;4.40;4.00;;;;;;;6.12;100.00;99904.81;5096105;28;20223;-80
2023/12/15 00:56:22;;;;;;;3.97;3.67;;;;;;;6.01;100.00;99905.28;5094129;28;20188;-78
2023/12/15 00:58:48;;;;;;;3.23;2.93;;;;;;;6.05;100.00;99911.91;5093676;28;20327;-78
2023/12/15 01:01:17;;;;;;;2.60;2.40;;;;;;;6.06;100.00;99922.34;5094262;28;20204;-79
2023/12/15 01:03:47;;;;;;;2.83;2.63;;;;;;;6.03;100.00;99922.72;5091269;28;20280;-79
2023/12/15 01:06:15;;;;;;;3.03;2.80;;;;;;;6.00;100.00;99927.56;5101126;28;20658;-78
2023/12/15 01:08:42;;;;;;;3.70;3.40;;;;;;;6.02;100.00;99931.69;5098835;28;20214;-79
2023/12/15 01:11:14;;;;;;;4.37;3.97;;;;;;;5.96;100.00;99935.09;5083027;28;20196;-78
2023/12/15 01:13:41;;;;;;;4.13;3.83;;;;;;;5.83;100.00;99937.53;5065771;28;20221;-79
2023/12/15 01:16:10;;;;;;;4.30;3.90;;;;;;;5.85;100.00;99942.66;5101236;28;20294;-79
2023/12/15 01:18:42;;;;;;;4.07;3.77;;;;;;;5.86;100.00;99936.34;5098199;28;20214;-78
2023/12/15 01:21:09;;;;;;;4.30;3.90;;;;;;;5.86;100.00;99947.81;5074530;28;20208;-79
2023/12/15 01:23:38;;;;;;;4.13;3.73;;;;;;;5.84;100.00;99954.28;5060415;28;20196;-78
2023/12/15 01:26:05;;;;;;;4.27;3.70;;;;;;;5.82;100.00;99954.50;5099657;28;20206;-78
2023/12/15 01:28:33;;;;;;;4.07;3.50;;;;;;;5.75;100.00;99957.03;5095023;28;20215;-79
2023/12/15 01:31:02;;;;;;;4.20;3.77;;;;;;;5.73;100.00;99953.75;5095282;28;20207;-81
2023/12/15 01:33:33;;;;;;;3.80;3.50;;;;;;;5.71;100.00;99953.09;5093511;28;20196;-79
2023/12/15 01:36:00;;;;;;;4.10;3.80;;;;;;;5.70;100.00;99966.56;5092218;28;20195;-78
2023/12/15 01:38:30;;;;;;;4.37;3.70;;;;;;;5.67;100.00;99970.41;5091473;28;20196;-80
2023/12/15 01:41:00;;;;;;;4.00;3.40;;;;;;;5.61;100.00;99968.47;5094673;28;20274;-82
2023/12/15 01:43:28;;;;;;;3.60;3.30;;;;;;;5.61;100.00;99983.56;5075728;28;20231;-78
2023/12/15 01:45:56;;;;;;;3.37;3.07;;;;;;;5.58;100.00;99978.63;5060418;28;20204;-80
2023/12/15 01:48:40;;;;;;;4.07;3.47;;;;;;;5.64;100.00;99986.72;5092867;28;20207;-78
2023/12/15 01:51:07;;;;;;;3.97;3.47;;;;;;;5.57;100.00;99980.47;5091572;28;20234;-80
2023/12/15 01:53:38;;;;;;;3.30;3.00;;;;;;;5.63;100.00;99984.25;5092097;28;20232;-80
2023/12/15 01:56:10;;;;;;;3.60;3.27;;;;;;;5.67;100.00;99998.81;5100391;28;20193;-79
2023/12/15 01:58:39;;;;;;;3.63;3.33;;;;;;;5.54;100.00;99998.59;5098240;28;20190;-80
2023/12/15 02:01:08;;;;;;;3.63;3.33;;;;;;;5.73;100.00;99998.13;5112054;28;20196;-78
2023/12/15 02:03:39;;;;;;;3.50;3.20;;;;;;;5.62;100.00;100002.00;5101916;28;20211;-79
2023/12/15 02:06:12;;;;;;;3.93;3.63;;;;;;;5.59;100.00;100002.38;5097606;28;20252;-78
2023/12/15 02:08:43;;;;;;;3.80;3.43;;;;;;;5.57;100.00;100008.88;5114082;28;20192;-79
2023/12/15 02:11:34;;;;;;;3.70;3.40;;;;;;;5.62;100.00;100003.84;5106610;28;20197;-79
2023/12/15 02:14:06;;;;;;;3.67;3.37;;;;;;;5.54;100.00;100009.22;5106837;28;20678;-82
2023/12/15 02:16:35;;;;;;;3.70;3.30;;;;;;;5.45;100.00;100012.97;5086129;28;20311;-79
2023/12/15 02:19:07;;;;;;;3.30;3.07;;;;;;;5.38;100.00;100009.34;5075135;28;20272;-78
2023/12/15 02:21:35;;;;;;;4.03;3.73;;;;;;;5.31;100.00;100006.56;5098376;28;20204;-79
2023/12/15 02:24:02;;;;;;;3.80;3.50;;;;;;;5.39;100.00;100017.13;5096974;28;20245;-78
2023/12/15 02:26:33;;;;;;;3.57;3.23;;;;;;;5.34;100.00;100024.81;5103222;28;20240;-79
2023/12/15 02:29:01;;;;;;;3.83;3.53;;;;;;;5.34;100.00;100024.81;5086311;28;20223;-78
2023/12/15 02:31:32;;;;;;;3.90;3.50;;;;;;;5.40;100.00;100036.56;5079235;28;20274;-80
2023/12/15 02:33:59;;;;;;;3.90;3.13;;;;;;;5.37;100.00;100031.59;5104708;28;20209;-81
2023/12/15 02:36:28;;;;;;;4.33;3.50;;;;;;;5.29;100.00;100032.47;5103410;28;20196;-78
2023/12/15 02:38:55;;;;;;;4.13;3.53;;;;;;;5.27;100.00;100027.34;5099597;28;20319;-81
2023/12/15 02:41:31;;;;;;;4.00;3.70;;;;;;;5.26;100.00;100038.16;5095266;28;20238;-80
2023/12/15 02:44:00;;;;;;;4.17;3.53;;;;;;;5.26;100.00;100036.34;5079972;28;20294;-80
2023/12/15 02:46:27;;;;;;;3.73;3.43;;;;;;;5.34;100.00;100038.09;5094012;28;20188;-78
2023/12/15 02:49:03;;;;;;;4.37;3.97;;;;;;;5.33;100.00;100037.25;5111138;28;20206;-80
2023/12/15 02:51:31;;;;;;;4.17;3.77;;;;;;;5.24;100.00;100035.66;5108959;28;20188;-80
2023/12/15 02:54:01;;;;;;;4.30;3.90;;;;;;;5.28;100.00;100050.25;5113316;28;20266;-80
2023/12/15 02:56:32;;;;;;;3.90;3.60;;;;;;;5.31;100.00;100052.56;5115392;28;20181;-80
2023/12/15 02:58:59;;;;;;;3.80;3.50;;;;;;;5.28;100.00;100057.38;5106019;28;20195;-83
2023/12/15 03:01:29;;;;;;;4.07;3.73;;;;;;;5.27;100.00;100061.06;5085605;28;20205;-81
2023/12/15 03:03:56;;;;;;;4.43;3.60;;;;;;;5.28;100.00;100068.00;5093973;28;20192;-79
2023/12/15 03:06:23;;;;;;;3.87;3.23;;;;;;;5.32;100.00;100064.00;5090906;28;20191;-78
2023/12/15 03:08:50;;;;;;;3.97;3.67;;;;;;;5.32;100.00;100072.81;5111196;28;20188;-79
2023/12/15 03:11:17;;;;;;;3.60;3.30;;;;;;;5.30;100.00;100072.16;5085991;28;20200;-79
2023/12/15 03:13:46;;;;;;;4.00;3.70;;;;;;;5.38;100.00;100078.41;5101242;28;20256;-78
2023/12/15 03:16:14;;;;;;;4.10;3.70;;;;;;;5.35;100.00;100079.63;5098308;28;20196;-80
2023/12/15 03:18:41;;;;;;;3.60;3.30;;;;;;;5.34;100.00;100091.25;5081671;28;20286;-81
2023/12/15 03:21:08;;;;;;;3.50;3.20;;;;;;;5.32;100.00;100088.75;5071778;28;20227;-79
2023/12/15 03:23:37;;;;;;;3.40;3.10;;;;;;;5.39;100.00;100096.84;5070325;28;20211;-80
2023/12/15 03:26:08;;;;;;;3.33;3.03;;;;;;;5.39;100.00;100106.66;5090989;28;20192;-79
2023/12/15 03:28:40;;;;;;;2.90;2.70;;;;;;;5.31;100.00;100108.38;5077278;28;20526;-79
2023/12/15 03:31:08;;;;;;;2.77;2.57;;;;;;;5.21;100.00;100115.72;5087699;28;20205;-78
2023/12/15 03:33:38;;;;;;;2.80;2.60;;;;;;;5.33;100.00;100116.97;5101846;28;20188;-79
2023/12/15 03:36:08;;;;;;;2.70;2.50;;;;;;;5.38;100.00;100123.59;5105882;28;20187;-78
2023/12/15 03:38:36;;;;;;;3.23;2.60;;;;;;;5.32;100.00;100125.94;5089399;28;20204;-78
2023/12/15 03:41:07;;;;;;;2.60;2.40;;;;;;;5.29;100.00;100128.97;5109886;28;20222;-79
2023/12/15 03:43:37;;;;;;;2.47;2.27;;;;;;;5.26;100.00;100125.81;5094620;28;20205;-78
2023/12/15 03:46:07;;;;;;;2.17;2.03;;;;;;;5.19;100.00;100128.34;5086145;28;20201;-78
2023/12/15 03:48:34;;;;;;;2.43;2.23;;;;;;;5.19;100.00;100133.66;5099990;28;20201;-80
2023/12/15 03:51:02;;;;;;;2.43;2.23;;;;;;;5.14;100.00;100138.66;5089074;28;20205;-82
2023/12/15 03:53:29;;;;;;;2.60;2.40;;;;;;;5.14;100.00;100143.13;5082797;28;20228;-79
2023/12/15 03:55:56;;;;;;;2.43;2.23;;;;;;;5.08;100.00;100141.19;5077710;28;20200;-78
2023/12/15 03:58:23;;;;;;;3.10;2.70;;;;;;;4.98;100.00;100146.69;5105106;28;20196;-79
2023/12/15 04:00:51;;;;;;;2.00;1.80;;;;;;;5.05;100.00;100155.63;5112444;28;20262;-81
2023/12/15 04:03:22;;;;;;;2.17;1.97;;;;;;;5.06;100.00;100151.13;5094210;28;20271;-80
2023/12/15 04:05:49;;;;;;;2.53;2.00;;;;;;;4.95;100.00;100157.63;5101616;28;20191;-79
2023/12/15 04:08:16;;;;;;;2.07;1.53;;;;;;;5.04;100.00;100161.13;5089630;28;20192;-78
2023/12/15 04:10:43;;;;;;;1.70;1.60;;;;;;;4.94;100.00;100157.81;5098497;28;20203;-80
2023/12/15 04:13:09;;;;;;;1.50;1.40;;;;;;;4.96;100.00;100161.94;5099373;28;20211;-80
2023/12/15 04:15:41;;;;;;;2.40;1.67;;;;;;;4.91;100.00;100168.78;5079710;28;20602;-78
2023/12/15 04:18:08;;;;;;;1.50;1.40;;;;;;;4.87;100.00;100170.94;5085380;28;20242;-79
2023/12/15 04:20:35;;;;;;;1.87;1.50;;;;;;;4.81;100.00;100184.88;5104006;28;20252;-79
2023/12/15 04:23:04;;;;;;;1.50;1.40;;;;;;;4.87;100.00;100178.91;5100247;28;20188;-79
2023/12/15 04:25:32;;;;;;;3.30;1.40;;;;;;;4.82;100.00;100181.25;5096938;28;20204;-79
2023/12/15 04:27:59;;;;;;;2.10;1.60;;;;;;;4.79;100.00;100190.38;5082229;28;20211;-79
2023/12/15 04:30:27;;;;;;;1.50;1.40;;;;;;;4.67;100.00;100188.22;5102046;28;20192;-80
2023/12/15 04:32:56;;;;;;;1.63;1.53;;;;;;;4.67;100.00;100197.03;5095916;28;20202;-79
2023/12/15 04:35:23;;;;;;;1.90;1.50;;;;;;;4.79;100.00;100194.84;5053454;28;20621;-80
2023/12/15 04:37:53;;;;;;;1.73;1.63;;;;;;;4.74;100.00;100197.19;5076680;28;20290;-79
2023/12/15 04:40:22;;;;;;;1.83;1.60;;;;;;;4.73;100.00;100198.19;5097902;28;20220;-79
2023/12/15 04:42:49;;;;;;;1.80;1.70;;;;;;;4.66;100.00;100195.38;5091938;28;20192;-80
2023/12/15 04:45:18;;;;;;;1.90;1.70;;;;;;;4.77;100.00;100191.53;5060958;28;20208;-79
2023/12/15 04:47:47;;;;;;;1.80;1.70;;;;;;;4.72;100.00;100200.00;5081998;28;20312;-80
2023/12/15 04:50:14;;;;;;;2.00;1.80;;;;;;;4.68;100.00;100200.50;5108632;28;20191;-79
2023/12/15 04:52:41;;;;;;;2.13;1.80;;;;;;;4.65;100.00;100203.50;5079534;28;20638;-78
2023/12/15 04:55:10;;;;;;;2.40;2.07;;;;;;;4.70;100.00;100209.16;5108606;28;20232;-82
2023/12/15 04:57:40;;;;;;;2.10;2.00;;;;;;;4.81;100.00;100217.56;5072841;28;20266;-81
2023/12/15 05:00:16;;;;;;;2.30;2.10;;;;;;;4.83;100.00;100220.06;5084048;28;20262;-81
2023/12/15 05:02:43;;;;;;;2.20;2.00;;;;;;;4.67;100.00;100228.88;5104971;28;20244;-79
2023/12/15 05:05:10;;;;;;;2.43;2.23;;;;;;;4.66;100.00;100232.53;5070345;28;20200;-80
2023/12/15 05:07:38;;;;;;;2.93;2.10;;;;;;;4.76;100.00;100240.31;5092000;28;20198;-80
2023/12/15 05:10:06;;;;;;;2.67;2.47;;;;;;;4.70;100.00;100243.66;5102142;28;20199;-80
2023/12/15 05:12:48;;;;;;;3.03;2.73;;;;;;;4.66;100.00;100250.28;5093040;28;20199;-80
2023/12/15 05:15:17;;;;;;;3.30;3.00;;;;;;;4.57;100.00;100260.09;5079093;28;20227;-81
2023/12/15 05:17:43;;;;;;;3.27;2.97;;;;;;;4.65;100.00;100261.91;5095895;28;20218;-77
2023/12/15 05:20:16;;;;;;;3.27;2.97;;;;;;;4.63;100.00;100272.66;5097561;28;20212;-78
2023/12/15 05:22:46;;;;;;;3.23;2.90;;;;;;;4.66;100.00;100280.31;5095369;28;20275;-79
2023/12/15 05:25:13;;;;;;;3.37;3.03;;;;;;;4.67;100.00;100278.47;5091218;28;20204;-81
2023/12/15 05:27:42;;;;;;;3.53;3.23;;;;;;;4.62;100.00;100284.28;5102532;28;20197;-80
2023/12/15 05:30:09;;;;;;;4.20;3.40;;;;;;;4.68;100.00;100285.44;5096994;28;20199;-81
2023/12/15 05:32:38;;;;;;;3.60;3.30;;;;;;;4.68;100.00;100282.78;5081823;28;20250;-80
2023/12/15 05:35:10;;;;;;;3.70;3.40;;;;;;;4.65;100.00;100293.75;5077344;28;20192;-80
2023/12/15 05:37:42;;;;;;;3.53;3.23;;;;;;;4.62;100.00;100297.53;5084522;28;20256;-82
2023/12/15 05:40:12;;;;;;;4.10;3.70;;;;;;;4.49;100.00;100318.44;5095253;28;20306;-79
2023/12/15 05:42:40;;;;;;;3.60;3.30;;;;;;;4.55;100.00;100325.75;5101963;28;20191;-79
2023/12/15 05:45:08;;;;;;;3.70;3.40;;;;;;;4.54;100.00;100331.22;5099142;28;20196;-80
2023/12/15 05:47:41;;;;;;;3.83;3.47;;;;;;;4.51;100.00;100328.91;5096291;28;20657;-80
2023/12/15 05:50:09;;;;;;;3.70;3.40;;;;;;;4.54;100.00;100337.34;5100885;28;20187;-82
2023/12/15 05:52:40;;;;;;;3.50;3.20;;;;;;;4.59;100.00;100340.34;5100836;28;20321;-79
2023/12/15 05:55:11;;;;;;;3.93;3.17;;;;;;;4.71;100.00;100348.84;5104096;28;20230;-78
2023/12/15 05:57:44;;;;;;;3.40;3.10;;;;;;;4.75;100.00;100353.66;5100378;28;20199;-79
2023/12/15 06:00:11;;;;;;;3.80;3.37;;;;;;;4.67;100.00;100363.41;5098193;28;20244;-79
2023/12/15 06:02:40;;;;;;;3.40;3.10;;;;;;;4.74;100.00;100356.47;5103881;28;20215;-81
2023/12/15 06:05:07;;;;;;;3.30;3.00;;;;;;;4.70;100.00;100361.28;5096037;28;20191;-80
2023/12/15 06:07:34;;;;;;;3.90;3.60;;;;;;;4.67;100.00;100361.59;5104627;28;20188;-80
2023/12/15 06:10:05;;;;;;;4.03;3.67;;;;;;;4.66;100.00;100375.03;5102343;28;20201;-80
2023/12/15 06:12:34;;;;;;;3.73;3.43;;;;;;;4.74;100.00;100381.19;5097972;28;20652;-79
2023/12/15 06:15:08;;;;;;;3.73;3.40;;;;;;;4.68;100.00;100381.84;5099869;28;20246;-80
2023/12/15 06:17:38;;;;;;;4.20;3.80;;;;;;;4.67;100.00;100384.63;5097266;28;20207;-79
2023/12/15 06:20:11;;;;;;;4.10;3.70;;;;;;;4.70;100.00;100390.47;5096957;28;20244;-81
2023/12/15 06:22:39;;;;;;;4.70;4.30;;;;;;;4.69;100.00;100391.47;5083381;28;20204;-80
2023/12/15 06:25:09;;;;;;;3.90;3.60;;;;;;;4.68;100.00;100400.41;5080439;28;20192;-80
2023/12/15 06:27:37;;;;;;;4.30;3.90;;;;;;;4.57;100.00;100399.91;5101695;28;20203;-81
2023/12/15 06:30:06;;;;;;;4.70;4.20;;;;;;;4.53;100.00;100407.34;5094446;28;20250;-81
2023/12/15 06:32:35;;;;;;;4.13;3.70;;;;;;;4.72;100.00;100416.84;5104316;28;20196;-80
2023/12/15 06:35:05;;;;;;;4.20;3.80;;;;;;;4.54;100.00;100411.66;5074530;28;20196;-80
2023/12/15 06:37:32;;;;;;;4.60;4.20;;;;;;;4.52;100.00;100413.66;5087475;28;20213;-80
2023/12/15 06:39:59;;;;;;;4.23;3.90;;;;;;;4.49;100.00;100421.09;5095196;28;22164;-79
2023/12/15 06:42:31;;;;;;;4.77;4.00;;;;;;;4.40;100.00;100426.38;5077536;28;20261;-80
2023/12/15 06:45:07;;;;;;;4.87;4.43;;;;;;;4.40;100.00;100433.50;5061644;28;20242;-80
2023/12/15 06:47:36;;;;;;;5.27;4.77;;;;;;;4.29;100.00;100444.44;5096377;28;20199;-80
2023/12/15 06:50:05;;;;;;;5.87;5.10;;;;;;;4.20;100.00;100440.06;5078668;28;20203;-81
2023/12/15 06:52:37;;;;;;;7.60;5.37;;;;;;;4.22;100.00;100467.25;5088823;28;20192;-81
2023/12/15 06:55:06;;;;;;;6.17;5.57;;;;;;;4.11;100.00;100454.25;5094772;28;20302;-81
2023/12/15 06:57:33;;;;;;;6.17;5.30;;;;;;;4.10;100.00;100458.75;5077250;28;20196;-79
2023/12/15 07:00:01;;;;;;;6.13;5.53;;;;;;;4.03;100.00;100470.13;5099957;28;20192;-80
2023/12/15 07:02:31;;;;;;;6.37;5.70;;;;;;;4.02;100.00;100466.66;5086272;28;20184;-81
2023/12/15 07:05:00;;;;;;;6.60;5.90;;;;;;;4.01;100.00;100480.91;5099194;28;20197;-79
2023/12/15 07:07:27;;;;;;;6.93;6.23;;;;;;;3.97;100.00;100477.72;5098128;28;20192;-80
2023/12/15 07:09:56;;;;;;;7.80;6.97;;;;;;;3.99;100.00;100472.28;5098095;28;20766;-79
2023/12/15 07:12:26;;;;;;;7.07;6.20;;;;;;;4.05;100.00;100476.97;5094829;28;20188;-80
2023/12/15 07:14:53;;;;;;;6.70;5.87;;;;;;;4.15;100.00;100472.38;5094678;28;20245;-80
2023/12/15 07:17:20;;;;;;;7.20;6.17;;;;;;;4.24;100.00;100490.00;5094555;28;20199;-81
2023/12/15 07:19:55;;;;;;;6.87;6.20;;;;;;;4.25;100.00;100496.94;5093416;28;20198;-80
2023/12/15 07:22:22;;;;;;;7.87;6.17;;;;;;;4.27;100.00;100504.75;5093612;28;20199;-78
2023/12/15 07:24:49;;;;;;;7.00;6.30;;;;;;;4.35;100.00;100508.28;5093545;28;20241;-82
2023/12/15 07:27:16;;;;;;;6.93;6.23;;;;;;;4.49;100.00;100514.81;5092668;28;20203;-80
2023/12/15 07:29:52;;;;;;;6.97;6.33;;;;;;;4.55;100.00;100529.28;5097018;28;20192;-78
2023/12/15 07:32:19;;;;;;;7.70;5.33;;;;;;;4.66;100.00;100532.47;5096824;28;20215;-81
2023/12/15 07:34:48;;;;;;;4.90;4.40;;;;;;;4.76;100.00;100538.47;5093962;28;20195;-79
2023/12/15 07:37:16;;;;;;;3.90;3.50;;;;;;;4.86;100.00;100541.00;5102744;28;20254;-81
2023/12/15 07:39:47;;;;;;;3.30;3.00;;;;;;;4.85;100.00;100542.00;5093255;28;20208;-78
2023/12/15 07:42:15;;;;;;;3.60;3.30;;;;;;;4.95;100.00;100555.13;5102415;28;20219;-81
2023/12/15 07:44:46;;;;;;;3.70;3.40;;;;;;;4.80;100.00;100547.81;5100913;28;20183;-80
2023/12/15 07:47:18;;;;;;;3.43;3.13;;;;;;;4.75;100.00;100547.44;5094455;28;20220;-80
2023/12/15 07:49:49;;;;;;;58.30;27.70;;;;;;;4.75;100.00;100550.09;5114751;28;20262;-79
2023/12/15 07:52:17;;;;;;;12.90;9.13;;;;;;;4.68;100.00;100554.38;5088262;28;20201;-80
2023/12/15 07:54:48;;;;;;;7.10;6.40;;;;;;;4.76;100.00;100570.31;5098012;28;20627;-80
2023/12/15 07:57:35;;;;;;;4.13;3.73;;;;;;;4.59;100.00;100568.59;5079368;28;20195;-79
2023/12/15 08:00:05;;;;;;;4.27;3.63;;;;;;;4.56;100.00;100581.38;5080720;28;20671;-81
2023/12/15 08:02:38;;;;;;;4.70;4.20;;;;;;;4.63;100.00;100577.91;5080416;28;20219;-79
2023/12/15 08:05:06;;;;;;;3.90;3.50;;;;;;;4.73;100.00;100583.09;5103426;28;20188;-82
2023/12/15 08:07:33;;;;;;;4.27;3.87;;;;;;;4.82;100.00;100590.94;5093221;28;20211;-81
2023/12/15 08:10:03;;;;;;;4.40;4.00;;;;;;;4.84;100.00;100601.41;5100794;28;20203;-79
2023/12/15 08:12:30;;;;;;;4.67;4.13;;;;;;;4.79;100.00;100603.72;5093521;28;20193;-79
2023/12/15 08:14:59;;;;;;;4.50;4.10;;;;;;;4.81;100.00;100604.38;5091607;28;20210;-80
2023/12/15 08:17:26;;;;;;;6.00;5.40;;;;;;;4.99;100.00;100604.31;5093880;28;20208;-81
2023/12/15 08:19:53;;;;;;;5.10;4.60;;;;;;;5.09;100.00;100615.59;5092504;28;20192;-81
2023/12/15 08:22:23;;;;;;;4.10;3.70;;;;;;;5.17;100.00;100611.19;5092368;28;20204;-79
2023/12/15 08:24:57;;;;;;;4.33;3.93;;;;;;;5.15;100.00;100612.31;5092612;28;20215;-79
2023/12/15 08:27:25;;;;;;;4.27;3.87;;;;;;;5.08;100.00;100617.47;5076489;28;20261;-79
2023/12/15 08:29:53;;;;;;;3.50;3.20;;;;;;;5.08;100.00;100617.47;5093960;28;20741;-79
2023/12/15 08:32:22;;;;;;;3.83;3.47;;;;;;;5.15;100.00;100626.44;5093683;28;20780;-79
2023/12/15 08:34:57;;;;;;;3.60;3.30;;;;;;;5.14;100.00;100629.25;5109185;28;20192;-79
2023/12/15 08:37:28;;;;;;;4.43;3.60;;;;;;;5.11;100.00;100634.88;5094777;28;20241;-81
2023/12/15 08:39:57;;;;;;;4.20;3.80;;;;;;;5.13;100.00;100643.53;5108039;28;20188;-80
2023/12/15 08:42:23;;;;;;;3.60;3.10;;;;;;;5.17;100.00;100645.72;5100431;28;20277;-81
2023/12/15 08:44:50;;;;;;;4.37;3.53;;;;;;;5.13;100.00;100652.31;5112518;28;20191;-80
2023/12/15 08:47:20;;;;;;;5.33;3.50;;;;;;;5.15;100.00;100655.66;5112717;28;20191;-80
2023/12/15 08:49:47;;;;;;;4.00;3.30;;;;;;;5.24;100.00;100657.34;5078132;28;20223;-79
2023/12/15 08:52:17;;;;;;;3.83;3.40;;;;;;;5.33;100.00;100667.03;5099943;28;20200;-80
2023/12/15 08:54:45;;;;;;;3.30;3.00;;;;;;;5.44;100.00;100671.22;5106968;28;20232;-80
2023/12/15 08:57:16;;;;;;;3.30;3.00;;;;;;;5.42;100.00;100686.47;5101235;28;20279;-79
2023/12/15 08:59:43;;;;;;;3.23;2.93;;;;;;;5.49;100.00;100699.97;5092033;28;20194;-80
2023/12/15 09:02:15;;;;;;;2.20;2.00;;;;;;;5.51;100.00;100705.94;5093040;28;20208;-83
2023/12/15 09:04:43;;;;;;;2.40;2.20;;;;;;;5.43;100.00;100713.91;5088656;28;20298;-80
2023/12/15 09:07:27;;;;;;;2.90;2.43;;;;;;;5.23;100.00;100719.44;5111560;28;20199;-79
2023/12/15 09:09:55;;;;;;;2.40;2.20;;;;;;;5.30;100.00;100728.47;5074662;28;20282;-80
2023/12/15 09:12:24;;;;;;;2.80;2.30;;;;;;;5.17;100.00;100735.22;5103093;28;20648;-80
2023/12/15 09:14:56;;;;;;;2.53;2.33;;;;;;;4.98;100.00;100736.25;5104969;28;20189;-79
2023/12/15 09:17:23;;;;;;;2.63;2.40;;;;;;;5.00;100.00;100733.44;5092306;28;20191;-80
2023/12/15 09:19:52;;;;;;;2.60;2.40;;;;;;;4.80;100.00;100756.72;5097195;28;20199;-80
2023/12/15 09:22:19;;;;;;;2.60;2.40;;;;;;;4.78;100.00;100750.72;5086224;28;20219;-79
2023/12/15 09:24:46;;;;;;;2.40;2.20;;;;;;;4.76;100.00;100752.69;5105864;28;20195;-79
2023/12/15 09:27:15;;;;;;;3.00;2.73;;;;;;;4.48;100.00;100757.28;5097482;28;20188;-78
2023/12/15 09:29:43;;;;;;;3.17;2.87;;;;;;;4.57;100.00;100745.78;5087657;28;20283;-78
2023/12/15 09:32:15;;;;;;;3.23;2.93;;;;;;;4.61;100.00;100757.75;5113053;28;20207;-81
2023/12/15 09:34:42;;;;;;;3.87;3.47;;;;;;;4.53;100.00;100746.19;5096150;28;20197;-79
2023/12/15 09:37:13;;;;;;;3.97;3.33;;;;;;;4.54;100.00;100759.31;5098204;28;20609;-80
2023/12/15 09:39:46;;;;;;;4.30;3.90;;;;;;;4.54;100.00;100758.50;5112473;28;20673;-81
2023/12/15 09:42:12;;;;;;;4.43;3.83;;;;;;;4.49;100.00;100761.59;5108202;28;20280;-80
2023/12/15 09:44:41;;;;;;;4.33;3.93;;;;;;;4.48;100.00;100764.44;5085226;28;20200;-79
2023/12/15 09:47:33;;;;;;;4.67;3.57;;;;;;;4.47;100.00;100771.56;5105955;28;20732;-81
2023/12/15 09:50:04;;;;;;;4.23;3.83;;;;;;;4.47;100.00;100779.53;5109320;28;20214;-79
2023/12/15 09:52:36;;;;;;;3.97;3.60;;;;;;;4.41;100.00;100770.34;5097582;28;20191;-80
2023/12/15 09:55:07;;;;;;;4.60;3.80;;;;;;;4.45;100.00;100781.47;5083721;28;20231;-80
2023/12/15 09:57:39;;;;;;;4.40;4.00;;;;;;;4.46;100.00;100784.97;5085988;28;20196;-80
2023/12/15 10:00:07;;;;;;;4.47;4.07;;;;;;;4.43;100.00;100788.78;5070433;28;20196;-80
2023/12/15 10:02:40;;;;;;;4.70;4.30;;;;;;;4.50;100.00;100776.56;5089069;28;20246;-80
2023/12/15 10:05:08;;;;;;;4.67;4.20;;;;;;;4.50;100.00;100779.19;5093716;28;20184;-79
2023/12/15 10:07:37;;;;;;;4.67;4.17;;;;;;;4.39;100.00;100784.72;5091348;28;20219;-79
2023/12/15 10:10:04;;;;;;;5.53;4.30;;;;;;;4.47;100.00;100778.69;5094159;28;20280;-81
2023/12/15 10:12:37;;;;;;;5.03;4.53;;;;;;;4.44;100.00;100780.63;5098690;28;20187;-82
2023/12/15 10:15:06;;;;;;;5.30;4.80;;;;;;;4.34;100.00;100774.56;5091533;28;20192;-81
2023/12/15 10:17:33;;;;;;;4.87;4.47;;;;;;;4.40;100.00;100781.09;5085261;28;20208;-80
2023/12/15 10:20:08;;;;;;;6.20;4.97;;;;;;;4.52;100.00;100793.16;5080592;28;21456;-79
2023/12/15 10:22:38;;;;;;;6.67;5.73;;;;;;;4.46;100.00;100792.94;5104786;28;20207;-80
2023/12/15 10:25:22;;;;;;;73.30;45.17;;;;;;;4.38;100.00;100791.88;5095092;28;20235;-80
2023/12/15 10:27:53;;;;;;;9.77;8.10;;;;;;;4.35;100.00;100796.63;5094599;28;20227;-79
2023/12/15 10:30:23;;;;;;;6.53;5.87;;;;;;;4.36;100.00;100801.81;5098932;28;20199;-80
2023/12/15 10:32:53;;;;;;;6.83;5.10;;;;;;;4.31;100.00;100801.41;5105636;28;20210;-80
2023/12/15 10:35:22;;;;;;;6.23;5.63;;;;;;;4.27;100.00;100808.00;5100407;28;20261;-79
2023/12/15 10:37:52;;;;;;;6.50;5.90;;;;;;;4.27;100.00;100808.00;5088275;28;20208;-81
2023/12/15 10:40:21;;;;;;;6.77;6.07;;;;;;;4.17;100.00;100811.72;5095458;28;20191;-78
2023/12/15 10:42:51;;;;;;;6.93;4.93;;;;;;;3.99;100.00;100809.03;5082105;28;20265;-81
2023/12/15 10:45:19;;;;;;;4.40;4.00;;;;;;;3.94;100.00;100816.59;5081491;28;20584;-81
2023/12/15 10:47:53;;;;;;;5.10;4.57;;;;;;;3.90;100.00;100820.53;5092237;28;20204;-80
2023/12/15 10:50:20;;;;;;;4.37;3.97;;;;;;;3.68;100.00;100826.22;5101043;28;20214;-81
2023/12/15 10:52:48;;;;;;;4.53;4.03;;;;;;;3.66;100.00;100834.31;5111505;28;20192;-79
2023/12/15 10:55:23;;;;;;;4.50;4.10;;;;;;;3.65;100.00;100842.41;5110486;28;20242;-80
2023/12/15 10:57:51;;;;;;;4.97;4.17;;;;;;;3.55;100.00;100843.28;5087371;28;20204;-79
2023/12/15 11:00:20;;;;;;;4.63;3.97;;;;;;;3.53;100.00;100845.25;5095274;28;20195;-80
2023/12/15 11:02:47;;;;;;;4.13;3.70;;;;;;;3.47;100.00;100845.81;5095031;28;20223;-79
2023/12/15 11:05:16;;;;;;;4.20;3.80;;;;;;;3.43;100.00;100841.78;5105915;28;20192;-81
2023/12/15 11:07:59;;;;;;;4.90;4.40;;;;;;;3.28;100.00;100855.63;5103435;28;20199;-79
2023/12/15 11:10:32;;;;;;;7.07;5.53;;;;;;;3.27;100.00;100865.38;5098760;28;20195;-77
2023/12/15 11:13:47;;;;;;;7.93;7.13;;;;;;;3.22;100.00;100870.28;5113950;28;20674;-80
2023/12/15 11:16:17;;;;;;;8.40;6.10;;;;;;;3.05;100.00;100873.66;5113991;28;20219;-79
2023/12/15 11:18:44;;;;;;;7.30;6.50;;;;;;;2.99;100.00;100872.41;5113563;28;20211;-80
2023/12/15 11:21:13;;;;;;;7.07;6.37;;;;;;;2.80;100.00;100869.75;5114512;28;20191;-80
2023/12/15 11:23:56;;;;;;;9.57;7.63;;;;;;;2.73;100.00;100868.66;5093380;28;20250;-79
2023/12/15 11:26:28;;;;;;;7.63;6.57;;;;;;;2.71;100.00;100861.84;5093472;28;20274;-79
2023/12/15 11:29:18;;;;;;;7.90;6.50;;;;;;;2.43;100.00;100871.41;5101013;28;20674;-78
2023/12/15 11:31:45;;;;;;;8.10;7.30;;;;;;;2.31;100.00;100865.41;5085955;28;20274;-78
2023/12/15 11:34:38;;;;;;;7.50;6.63;;;;;;;2.15;100.00;100865.09;5089125;28;20735;-79
2023/12/15 11:37:15;;;;;;;6.77;5.50;;;;;;;2.11;100.00;100877.75;5099455;28;20218;-79
2023/12/15 11:39:50;;;;;;;9.20;8.20;;;;;;;1.94;100.00;100881.03;5093906;28;20196;-79